Airfield :
LOGIN :

Register | Disclaimer

   EN    FR    IT 

 










Legend :    VFR   Marginal VFR   IFR   Intensive IFR   Very Intensive IFR
Visi :
Ceiling :
>= 8 km
>= 3000ft
5 to 8 km
1000 to 3000 ft
1500m to 5 km
500 to 1000 ft
800 to 1500m
200 to 500 ft
< 800m
< 200 ft
Symbols :   Thunderstorms  Fog  Heavy snow  Heavy precipitations  Wind > 20 kt
SIGMETs :     Misc.  Thunderstorms  Icing  Turbulence  Mountain Waves  Volcanic Ashes






- Airport Elevation : 2096 ft
- IATA code : AUR


LFLW - Aurillac

CURRENT METAR :
  • 170600Z AUTO 00000KT CAVOK M06/M08 Q1033 NOSIG

EXPIRED METARs :
  • 170530Z AUTO 09003KT CAVOK M05/M06 Q1033 NOSIG
  • 170500Z AUTO 09002KT CAVOK M05/M07 Q1033
  • 170430Z AUTO 09003KT CAVOK M05/M07 Q1033
  • 170400Z AUTO VRB03KT CAVOK M04/M06 Q1033
  • 170330Z AUTO 11003KT CAVOK M05/M07 Q1033

TAF TAF LFLW
Valid from the 17 at 06:00 until the 17 at 15:00 UTC


170500Z 1706/1715 VRB03KT CAVOK



MET'MAP, your aeronautical weather chart ! - Copyright ORBIFLY December 2007 - Disclaimer

ORBIFLY MET'MAP TEAM :

Programming & Development : Alexandra Zaïnal
Concept & original design : Baudouin d'Aumeries
Assistance for programming : Marc-Olivier Méhu
Technical & hardware support : Manuel Goepfert

Contact : metmap@orbifly.com




SOURCES & CREDITS :

   NOAA